sensor_id;sensor_type;location;lat;lon;timestamp;pressure;altitude;pressure_sealevel;temperature;humidity
40596;BME280;26304;48.794;9.820;2023-02-23T00:05:10;95973.69;;;17.57;47.16
40596;BME280;26304;48.794;9.820;2023-02-23T00:10:52;95968.78;;;17.56;47.42
40596;BME280;26304;48.794;9.820;2023-02-23T00:16:38;95973.69;;;17.54;47.50
40596;BME280;26304;48.794;9.820;2023-02-23T00:22:26;95965.03;;;17.53;47.15
40596;BME280;26304;48.794;9.820;2023-02-23T00:28:09;95953.38;;;17.51;47.42
40596;BME280;26304;48.794;9.820;2023-02-23T00:33:52;95960.13;;;17.52;47.32
40596;BME280;26304;48.794;9.820;2023-02-23T00:39:36;95960.91;;;17.52;47.46
40596;BME280;26304;48.794;9.820;2023-02-23T00:45:18;95958.66;;;17.51;47.17
40596;BME280;26304;48.794;9.820;2023-02-23T00:51:02;95961.66;;;17.53;47.15
40596;BME280;26304;48.794;9.820;2023-02-23T00:56:46;95967.66;;;17.50;46.92
40596;BME280;26304;48.794;9.820;2023-02-23T01:02:29;95963.13;;;17.47;47.22
40596;BME280;26304;48.794;9.820;2023-02-23T01:08:11;95962.75;;;17.48;47.42
40596;BME280;26304;48.794;9.820;2023-02-23T01:13:58;95957.88;;;17.47;47.48
40596;BME280;26304;48.794;9.820;2023-02-23T01:19:41;95958.28;;;17.49;47.21
40596;BME280;26304;48.794;9.820;2023-02-23T01:25:23;95945.13;;;17.49;47.16
40596;BME280;26304;48.794;9.820;2023-02-23T01:31:09;95949.25;;;17.46;47.08
40596;BME280;26304;48.794;9.820;2023-02-23T01:36:52;95948.50;;;17.46;47.28
40596;BME280;26304;48.794;9.820;2023-02-23T01:42:36;95941.75;;;17.48;46.94
40596;BME280;26304;48.794;9.820;2023-02-23T01:48:23;95948.88;;;17.48;47.27
40596;BME280;26304;48.794;9.820;2023-02-23T01:54:09;95941.00;;;17.48;46.90
40596;BME280;26304;48.794;9.820;2023-02-23T01:59:54;95943.63;;;17.48;46.63
40596;BME280;26304;48.794;9.820;2023-02-23T02:05:38;95942.13;;;17.47;46.82
40596;BME280;26304;48.794;9.820;2023-02-23T02:11:22;95933.13;;;17.44;47.10
40596;BME280;26304;48.794;9.820;2023-02-23T02:17:21;95920.34;;;17.42;47.26
40596;BME280;26304;48.794;9.820;2023-02-23T02:23:45;95931.97;;;17.45;46.87
40596;BME280;26304;48.794;9.820;2023-02-23T02:30:15;95929.34;;;17.41;46.65
40596;BME280;26304;48.794;9.820;2023-02-23T02:42:28;95925.19;;;17.40;46.93
40596;BME280;26304;48.794;9.820;2023-02-23T02:48:19;95923.72;;;17.39;46.82
40596;BME280;26304;48.794;9.820;2023-02-23T02:54:08;95920.31;;;17.39;46.90
40596;BME280;26304;48.794;9.820;2023-02-23T02:59:57;95921.47;;;17.34;47.38
40596;BME280;26304;48.794;9.820;2023-02-23T03:05:57;95922.56;;;17.33;46.78
40596;BME280;26304;48.794;9.820;2023-02-23T03:12:06;95920.31;;;17.32;47.36
40596;BME280;26304;48.794;9.820;2023-02-23T03:18:19;95918.06;;;17.30;47.40
40596;BME280;26304;48.794;9.820;2023-02-23T03:24:31;95918.06;;;17.30;46.93
40596;BME280;26304;48.794;9.820;2023-02-23T03:30:39;95911.66;;;17.28;47.38
40596;BME280;26304;48.794;9.820;2023-02-23T03:36:47;95920.31;;;17.32;46.96
40596;BME280;26304;48.794;9.820;2023-02-23T03:42:50;95918.81;;;17.27;46.97
40596;BME280;26304;48.794;9.820;2023-02-23T03:48:54;95917.31;;;17.30;47.54
40596;BME280;26304;48.794;9.820;2023-02-23T03:55:00;95918.81;;;17.23;47.37
40596;BME280;26304;48.794;9.820;2023-02-23T04:01:03;95925.53;;;17.21;47.11
40596;BME280;26304;48.794;9.820;2023-02-23T04:07:06;95922.91;;;17.21;47.69
40596;BME280;26304;48.794;9.820;2023-02-23T04:13:13;95918.41;;;17.18;47.80
40596;BME280;26304;48.794;9.820;2023-02-23T04:18:57;95914.66;;;17.19;47.62
40596;BME280;26304;48.794;9.820;2023-02-23T04:24:40;95920.28;;;17.24;46.91
40596;BME280;26304;48.794;9.820;2023-02-23T04:30:23;95926.28;;;17.18;47.55
40596;BME280;26304;48.794;9.820;2023-02-23T04:36:08;95926.28;;;17.18;47.54
40596;BME280;26304;48.794;9.820;2023-02-23T04:41:50;95919.16;;;17.15;47.93
40596;BME280;26304;48.794;9.820;2023-02-23T04:47:34;95924.78;;;17.17;48.03
40596;BME280;26304;48.794;9.820;2023-02-23T04:53:17;95917.28;;;17.19;47.90
40596;BME280;26304;48.794;9.820;2023-02-23T04:58:59;95923.28;;;17.19;47.94
40596;BME280;26304;48.794;9.820;2023-02-23T05:04:43;95920.28;;;17.21;47.51
40596;BME280;26304;48.794;9.820;2023-02-23T05:10:26;95924.81;;;17.20;47.69
40596;BME280;26304;48.794;9.820;2023-02-23T05:16:09;95921.81;;;17.22;48.31
40596;BME280;26304;48.794;9.820;2023-02-23T05:21:52;95918.81;;;17.31;48.29
40596;BME280;26304;48.794;9.820;2023-02-23T05:27:35;95917.31;;;17.33;48.99
40596;BME280;26304;48.794;9.820;2023-02-23T05:33:17;95918.09;;;17.63;49.23
40596;BME280;26304;48.794;9.820;2023-02-23T05:39:03;95915.84;;;17.61;49.32
40596;BME280;26304;48.794;9.820;2023-02-23T05:44:45;95922.59;;;17.69;49.48
40596;BME280;26304;48.794;9.820;2023-02-23T05:50:28;95925.63;;;17.60;49.17
40596;BME280;26304;48.794;9.820;2023-02-23T05:56:14;95924.84;;;17.56;49.23
40596;BME280;26304;48.794;9.820;2023-02-23T06:02:00;95928.63;;;17.70;49.29
40596;BME280;26304;48.794;9.820;2023-02-23T06:07:42;95927.88;;;17.73;49.30
40596;BME280;26304;48.794;9.820;2023-02-23T06:13:26;95930.91;;;17.71;49.31
40596;BME280;26304;48.794;9.820;2023-02-23T06:19:09;95936.88;;;17.75;49.32
40596;BME280;26304;48.794;9.820;2023-02-23T06:24:51;95939.53;;;17.75;49.73
40596;BME280;26304;48.794;9.820;2023-02-23T06:30:35;95943.66;;;17.73;50.58
40596;BME280;26304;48.794;9.820;2023-02-23T06:36:18;95958.69;;;17.79;50.29
40596;BME280;26304;48.794;9.820;2023-02-23T06:42:01;95952.66;;;17.75;49.80
40596;BME280;26304;48.794;9.820;2023-02-23T06:47:45;95956.81;;;17.84;50.54
40596;BME280;26304;48.794;9.820;2023-02-23T06:53:27;95963.19;;;17.86;50.08
40596;BME280;26304;48.794;9.820;2023-02-23T06:59:10;95961.69;;;17.82;50.09
40596;BME280;26304;48.794;9.820;2023-02-23T07:04:54;95969.19;;;17.79;49.68
40596;BME280;26304;48.794;9.820;2023-02-23T07:10:36;95969.94;;;17.76;50.48
40596;BME280;26304;48.794;9.820;2023-02-23T07:16:19;95977.47;;;17.78;50.27
40596;BME280;26304;48.794;9.820;2023-02-23T07:22:02;95980.47;;;17.84;50.66
40596;BME280;26304;48.794;9.820;2023-02-23T07:27:45;95984.22;;;17.86;50.52
40596;BME280;26304;48.794;9.820;2023-02-23T07:33:28;95989.50;;;17.83;51.06
40596;BME280;26304;48.794;9.820;2023-02-23T07:39:13;95987.59;;;17.79;50.48
40596;BME280;26304;48.794;9.820;2023-02-23T07:44:56;95991.34;;;17.75;50.38
40596;BME280;26304;48.794;9.820;2023-02-23T07:50:38;95992.84;;;17.65;50.19
40596;BME280;26304;48.794;9.820;2023-02-23T07:56:22;95988.69;;;17.68;50.52
40596;BME280;26304;48.794;9.820;2023-02-23T08:02:05;95987.06;;;17.13;50.87
40596;BME280;26304;48.794;9.820;2023-02-23T08:07:48;95993.97;;;17.57;50.52
40596;BME280;26304;48.794;9.820;2023-02-23T08:13:32;95988.72;;;17.71;51.17
40596;BME280;26304;48.794;9.820;2023-02-23T08:19:16;95997.00;;;17.81;51.54
40596;BME280;26304;48.794;9.820;2023-02-23T08:24:58;96001.50;;;17.84;51.94
40596;BME280;26304;48.794;9.820;2023-02-23T08:30:43;96010.94;;;17.88;52.02
40596;BME280;26304;48.794;9.820;2023-02-23T08:36:25;96005.31;;;17.93;52.49
40596;BME280;26304;48.794;9.820;2023-02-23T08:42:08;96012.81;;;17.91;52.27
40596;BME280;26304;48.794;9.820;2023-02-23T08:47:53;96023.72;;;17.97;52.18
40596;BME280;26304;48.794;9.820;2023-02-23T08:53:35;96014.34;;;18.18;51.74
40596;BME280;26304;48.794;9.820;2023-02-23T08:59:18;96012.84;;;18.27;51.47
40596;BME280;26304;48.794;9.820;2023-02-23T09:05:01;96018.88;;;18.21;51.73
40596;BME280;26304;48.794;9.820;2023-02-23T09:10:44;96018.88;;;18.21;51.17
40596;BME280;26304;48.794;9.820;2023-02-23T09:16:26;96018.88;;;18.21;51.69
40596;BME280;26304;48.794;9.820;2023-02-23T09:22:10;96028.25;;;18.14;51.48
40596;BME280;26304;48.794;9.820;2023-02-23T09:27:53;96030.50;;;18.16;51.25
40596;BME280;26304;48.794;9.820;2023-02-23T09:33:37;96023.72;;;18.19;51.42
40596;BME280;26304;48.794;9.820;2023-02-23T09:39:20;96029.38;;;18.17;51.64
40596;BME280;26304;48.794;9.820;2023-02-23T09:45:13;96033.88;;;18.20;51.66
40596;BME280;26304;48.794;9.820;2023-02-23T09:51:00;96032.38;;;18.55;51.16
40596;BME280;26304;48.794;9.820;2023-02-23T09:56:51;96026.34;;;18.33;51.05
40596;BME280;26304;48.794;9.820;2023-02-23T10:02:37;96026.75;;;18.28;51.63
40596;BME280;26304;48.794;9.820;2023-02-23T10:08:41;96038.41;;;18.20;51.42
40596;BME280;26304;48.794;9.820;2023-02-23T10:20:38;96037.66;;;18.33;51.48
40596;BME280;26304;48.794;9.820;2023-02-23T10:26:25;96030.13;;;18.46;51.09
40596;BME280;26304;48.794;9.820;2023-02-23T10:32:19;96032.38;;;18.44;52.13
40596;BME280;26304;48.794;9.820;2023-02-23T10:38:02;96032.75;;;18.50;52.35
40596;BME280;26304;48.794;9.820;2023-02-23T10:43:45;96030.88;;;18.43;52.26
40596;BME280;26304;48.794;9.820;2023-02-23T10:49:37;96036.13;;;18.50;51.69
40596;BME280;26304;48.794;9.820;2023-02-23T10:55:23;96039.91;;;18.49;52.52
40596;BME280;26304;48.794;9.820;2023-02-23T11:01:08;96032.75;;;18.36;52.97
40596;BME280;26304;48.794;9.820;2023-02-23T11:07:06;96034.25;;;18.55;52.66
40596;BME280;26304;48.794;9.820;2023-02-23T11:12:48;96021.47;;;18.39;52.64
40596;BME280;26304;48.794;9.820;2023-02-23T11:18:31;96020.34;;;18.50;52.86
40596;BME280;26304;48.794;9.820;2023-02-23T11:24:18;96018.06;;;18.63;52.56
40596;BME280;26304;48.794;9.820;2023-02-23T11:30:04;96015.84;;;18.55;52.66
40596;BME280;26304;48.794;9.820;2023-02-23T11:35:47;96004.19;;;18.34;52.75
40596;BME280;26304;48.794;9.820;2023-02-23T11:41:39;96003.44;;;18.12;52.28
40596;BME280;26304;48.794;9.820;2023-02-23T11:47:22;96000.06;;;18.37;52.43
40596;BME280;26304;48.794;9.820;2023-02-23T11:53:15;95989.91;;;18.39;52.00
40596;BME280;26304;48.794;9.820;2023-02-23T11:59:04;95990.25;;;18.51;52.24
40596;BME280;26304;48.794;9.820;2023-02-23T12:04:49;95986.88;;;18.55;51.43
40596;BME280;26304;48.794;9.820;2023-02-23T12:10:36;95984.97;;;18.87;51.31
40596;BME280;26304;48.794;9.820;2023-02-23T12:16:25;95982.28;;;18.95;50.54
40596;BME280;26304;48.794;9.820;2023-02-23T12:22:11;95977.44;;;18.72;50.98
40596;BME280;26304;48.794;9.820;2023-02-23T12:28:00;95982.34;;;18.73;52.15
40596;BME280;26304;48.794;9.820;2023-02-23T12:33:52;95975.22;;;18.48;52.59
40596;BME280;26304;48.794;9.820;2023-02-23T12:39:39;95969.19;;;18.44;51.81
40596;BME280;26304;48.794;9.820;2023-02-23T12:45:29;95958.69;;;18.48;51.24
40596;BME280;26304;48.794;9.820;2023-02-23T12:51:23;95955.69;;;18.49;51.78
40596;BME280;26304;48.794;9.820;2023-02-23T12:57:15;95953.06;;;18.49;51.43
40596;BME280;26304;48.794;9.820;2023-02-23T13:09:44;95942.84;;;18.66;51.33
40596;BME280;26304;48.794;9.820;2023-02-23T13:15:43;95945.78;;;18.93;51.08
40596;BME280;26304;48.794;9.820;2023-02-23T13:21:29;95942.44;;;18.78;51.65
40596;BME280;26304;48.794;9.820;2023-02-23T13:27:18;95947.31;;;18.91;51.51
40596;BME280;26304;48.794;9.820;2023-02-23T13:33:13;95942.41;;;18.93;51.00
40596;BME280;26304;48.794;9.820;2023-02-23T13:39:11;95934.13;;;18.91;51.40
40596;BME280;26304;48.794;9.820;2023-02-23T13:45:10;95932.22;;;19.02;51.21
40596;BME280;26304;48.794;9.820;2023-02-23T13:51:02;95926.56;;;19.00;51.20
40596;BME280;26304;48.794;9.820;2023-02-23T13:56:48;95927.66;;;19.13;50.98
40596;BME280;26304;48.794;9.820;2023-02-23T14:02:36;95929.91;;;19.11;50.86
40596;BME280;26304;48.794;9.820;2023-02-23T14:08:22;95917.50;;;19.08;51.11
40596;BME280;26304;48.794;9.820;2023-02-23T14:14:10;95917.81;;;19.21;50.61
40596;BME280;26304;48.794;9.820;2023-02-23T14:20:13;95916.34;;;19.16;50.41
40596;BME280;26304;48.794;9.820;2023-02-23T14:26:10;95903.19;;;19.16;50.44
40596;BME280;26304;48.794;9.820;2023-02-23T14:32:02;95904.31;;;19.15;49.88
40596;BME280;26304;48.794;9.820;2023-02-23T14:37:54;95913.34;;;19.14;50.09
40596;BME280;26304;48.794;9.820;2023-02-23T14:43:42;95908.13;;;19.07;50.15
40596;BME280;26304;48.794;9.820;2023-02-23T14:49:27;95908.91;;;19.00;50.38
40596;BME280;26304;48.794;9.820;2023-02-23T14:55:20;95907.69;;;19.19;50.46
40596;BME280;26304;48.794;9.820;2023-02-23T15:01:03;95906.56;;;19.10;50.42
40596;BME280;26304;48.794;9.820;2023-02-23T15:06:46;95906.94;;;19.15;50.40
40596;BME280;26304;48.794;9.820;2023-02-23T15:12:34;95907.34;;;19.10;50.25
40596;BME280;26304;48.794;9.820;2023-02-23T15:18:22;95914.13;;;19.08;50.57
40596;BME280;26304;48.794;9.820;2023-02-23T15:24:10;95919.06;;;18.95;50.26
40596;BME280;26304;48.794;9.820;2023-02-23T15:29:54;95907.47;;;18.85;50.25
40596;BME280;26304;48.794;9.820;2023-02-23T15:35:40;95926.63;;;18.85;51.46
40596;BME280;26304;48.794;9.820;2023-02-23T15:41:28;95930.41;;;18.77;51.03
40596;BME280;26304;48.794;9.820;2023-02-23T15:47:18;95932.66;;;18.75;51.08
40596;BME280;26304;48.794;9.820;2023-02-23T15:53:04;95931.53;;;18.76;50.31
40596;BME280;26304;48.794;9.820;2023-02-23T15:58:56;95931.56;;;18.69;50.53
40596;BME280;26304;48.794;9.820;2023-02-23T16:04:41;95936.06;;;18.65;50.21
40596;BME280;26304;48.794;9.820;2023-02-23T16:10:29;95939.47;;;18.58;50.41
40596;BME280;26304;48.794;9.820;2023-02-23T16:16:14;95938.75;;;18.50;50.54
40596;BME280;26304;48.794;9.820;2023-02-23T16:22:00;95940.66;;;18.46;50.32
40596;BME280;26304;48.794;9.820;2023-02-23T16:27:43;95938.03;;;18.43;50.46
40596;BME280;26304;48.794;9.820;2023-02-23T16:33:28;95938.41;;;18.41;50.80
40596;BME280;26304;48.794;9.820;2023-02-23T16:39:12;95938.78;;;18.36;51.01
40596;BME280;26304;48.794;9.820;2023-02-23T16:44:58;95941.41;;;18.36;50.88
40596;BME280;26304;48.794;9.820;2023-02-23T16:50:41;95942.16;;;18.37;50.37
40596;BME280;26304;48.794;9.820;2023-02-23T16:56:26;95944.41;;;18.34;50.74
40596;BME280;26304;48.794;9.820;2023-02-23T17:02:12;95942.16;;;18.33;51.80
40596;BME280;26304;48.794;9.820;2023-02-23T17:07:54;95943.69;;;18.27;51.77
40596;BME280;26304;48.794;9.820;2023-02-23T17:13:39;95939.53;;;18.26;51.94
40596;BME280;26304;48.794;9.820;2023-02-23T17:19:22;95935.78;;;18.20;52.66
40596;BME280;26304;48.794;9.820;2023-02-23T17:25:05;95938.41;;;18.23;52.14
40596;BME280;26304;48.794;9.820;2023-02-23T17:30:49;95945.56;;;18.33;50.98
40596;BME280;26304;48.794;9.820;2023-02-23T17:36:31;95940.66;;;18.25;51.75
40596;BME280;26304;48.794;9.820;2023-02-23T17:42:14;95955.72;;;18.21;51.38
40596;BME280;26304;48.794;9.820;2023-02-23T17:47:58;95952.72;;;18.15;51.16
40596;BME280;26304;48.794;9.820;2023-02-23T17:53:40;95946.31;;;18.09;51.46
40596;BME280;26304;48.794;9.820;2023-02-23T17:59:23;95950.47;;;18.06;51.22
40596;BME280;26304;48.794;9.820;2023-02-23T18:05:07;95954.19;;;18.12;52.87
40596;BME280;26304;48.794;9.820;2023-02-23T18:10:50;95966.22;;;18.24;51.88
40596;BME280;26304;48.794;9.820;2023-02-23T18:16:33;95966.22;;;18.35;51.84
40596;BME280;26304;48.794;9.820;2023-02-23T18:22:17;95969.22;;;18.26;51.46
40596;BME280;26304;48.794;9.820;2023-02-23T18:28:00;95966.59;;;18.30;51.27
40596;BME280;26304;48.794;9.820;2023-02-23T18:33:42;95973.00;;;18.29;51.32
40596;BME280;26304;48.794;9.820;2023-02-23T18:39:28;95964.34;;;18.21;51.97
40596;BME280;26304;48.794;9.820;2023-02-23T18:45:11;95960.22;;;18.31;54.46
40596;BME280;26304;48.794;9.820;2023-02-23T18:50:55;95951.91;;;18.50;51.22
40596;BME280;26304;48.794;9.820;2023-02-23T18:56:40;95961.69;;;18.39;53.62
40596;BME280;26304;48.794;9.820;2023-02-23T19:02:22;95951.97;;;18.14;51.88
40596;BME280;26304;48.794;9.820;2023-02-23T19:08:05;95954.22;;;18.02;51.43
40596;BME280;26304;48.794;9.820;2023-02-23T19:13:57;95953.47;;;17.97;50.82
40596;BME280;26304;48.794;9.820;2023-02-23T19:19:40;95956.84;;;17.98;50.72
40596;BME280;26304;48.794;9.820;2023-02-23T19:25:23;95947.78;;;17.85;51.33
40596;BME280;26304;48.794;9.820;2023-02-23T19:31:08;95949.69;;;17.88;51.86
40596;BME280;26304;48.794;9.820;2023-02-23T19:36:51;95944.41;;;17.77;51.03
40596;BME280;26304;48.794;9.820;2023-02-23T19:42:33;95945.53;;;17.83;51.99
40596;BME280;26304;48.794;9.820;2023-02-23T19:48:18;95950.78;;;17.87;50.92
40596;BME280;26304;48.794;9.820;2023-02-23T19:54:02;95940.66;;;17.82;52.19
40596;BME280;26304;48.794;9.820;2023-02-23T19:59:44;95939.16;;;17.84;51.18
40596;BME280;26304;48.794;9.820;2023-02-23T20:05:29;95948.16;;;17.83;51.11
40596;BME280;26304;48.794;9.820;2023-02-23T20:11:11;95949.31;;;17.96;50.55
40596;BME280;26304;48.794;9.820;2023-02-23T20:16:55;95952.31;;;17.84;51.40
40596;BME280;26304;48.794;9.820;2023-02-23T20:22:39;95954.13;;;17.51;52.00
40596;BME280;26304;48.794;9.820;2023-02-23T20:28:23;95958.63;;;17.43;51.11
40596;BME280;26304;48.794;9.820;2023-02-23T20:34:07;95939.00;;;17.09;52.06
40596;BME280;26304;48.794;9.820;2023-02-23T20:39:52;95942.41;;;17.20;51.56
40596;BME280;26304;48.794;9.820;2023-02-23T20:45:34;95940.16;;;17.11;51.98
40596;BME280;26304;48.794;9.820;2023-02-23T20:51:17;95938.31;;;17.19;51.48
40596;BME280;26304;48.794;9.820;2023-02-23T20:57:01;95939.03;;;17.19;52.56
40596;BME280;26304;48.794;9.820;2023-02-23T21:02:49;95937.56;;;17.22;52.84
40596;BME280;26304;48.794;9.820;2023-02-23T21:08:35;95930.41;;;17.19;53.44
40596;BME280;26304;48.794;9.820;2023-02-23T21:14:21;95941.25;;;17.06;53.67
40596;BME280;26304;48.794;9.820;2023-02-23T21:20:04;95936.00;;;17.10;54.02
40596;BME280;26304;48.794;9.820;2023-02-23T21:25:51;95919.16;;;17.15;54.19
40596;BME280;26304;48.794;9.820;2023-02-23T21:31:35;95923.28;;;17.16;54.19
40596;BME280;26304;48.794;9.820;2023-02-23T21:37:18;95915.78;;;17.11;54.71
40596;BME280;26304;48.794;9.820;2023-02-23T21:43:01;95923.94;;;16.91;55.40
40596;BME280;26304;48.794;9.820;2023-02-23T21:48:50;95916.09;;;17.02;54.69
40596;BME280;26304;48.794;9.820;2023-02-23T21:54:32;95909.75;;;16.99;55.08
40596;BME280;26304;48.794;9.820;2023-02-23T22:00:16;95909.66;;;16.85;55.61
40596;BME280;26304;48.794;9.820;2023-02-23T22:06:02;95911.94;;;16.94;55.14
40596;BME280;26304;48.794;9.820;2023-02-23T22:11:46;95908.97;;;16.95;54.77
40596;BME280;26304;48.794;9.820;2023-02-23T22:17:28;95902.22;;;16.98;54.71
40596;BME280;26304;48.794;9.820;2023-02-23T22:23:14;95904.81;;;16.94;55.31
40596;BME280;26304;48.794;9.820;2023-02-23T22:28:56;95906.97;;;16.74;55.17
40596;BME280;26304;48.794;9.820;2023-02-23T22:34:39;95906.97;;;16.74;56.05
40596;BME280;26304;48.794;9.820;2023-02-23T22:40:22;95903.53;;;16.59;56.51
40596;BME280;26304;48.794;9.820;2023-02-23T22:46:05;95895.72;;;16.74;55.09
40596;BME280;26304;48.794;9.820;2023-02-23T22:51:48;95899.50;;;16.80;56.14
40596;BME280;26304;48.794;9.820;2023-02-23T22:57:33;95897.59;;;16.77;55.89
40596;BME280;26304;48.794;9.820;2023-02-23T23:03:15;95893.47;;;16.72;55.71
40596;BME280;26304;48.794;9.820;2023-02-23T23:08:57;95888.25;;;16.79;55.70
40596;BME280;26304;48.794;9.820;2023-02-23T23:14:41;95887.13;;;16.80;56.01
40596;BME280;26304;48.794;9.820;2023-02-23T23:20:24;95874.38;;;16.79;55.79
40596;BME280;26304;48.794;9.820;2023-02-23T23:26:06;95875.88;;;16.80;55.33
40596;BME280;26304;48.794;9.820;2023-02-23T23:31:50;95872.09;;;16.74;55.45
40596;BME280;26304;48.794;9.820;2023-02-23T23:37:33;95869.09;;;16.71;55.17
40596;BME280;26304;48.794;9.820;2023-02-23T23:43:16;95856.34;;;16.66;54.93
40596;BME280;26304;48.794;9.820;2023-02-23T23:49:05;95855.59;;;16.69;55.84
40596;BME280;26304;48.794;9.820;2023-02-23T23:54:48;95843.59;;;16.68;55.20
